Time;durP1;ratioP1;P1;durP2;ratioP2;P2;SDS_P1;SDS_P2;PMS_P1;PMS_P2;Temp;Humidity;BMP_temperature;BMP_pressure;BME280_temperature;BME280_humidity;BME280_pressure;Samples;Min_cycle;Max_cycle;Signal;HPM_P1;HPM_P2
2022/06/02 00:01:22;;;;;;;6.83;6.13;;;13.80;77.20;;;;;;5074064;28;20485;-67
2022/06/02 00:03:58;;;;;;;11.23;7.13;;;13.80;77.50;;;;;;5074249;28;20429;-67
2022/06/02 00:06:39;;;;;;;6.97;6.27;;;13.70;78.80;;;;;;5074239;28;21108;-67
2022/06/02 00:09:16;;;;;;;7.10;6.50;;;13.70;78.30;;;;;;5074010;28;20436;-67
2022/06/02 00:12:05;;;;;;;6.47;5.97;;;13.60;78.40;;;;;;5073231;28;20424;-67
2022/06/02 00:14:41;;;;;;;6.90;6.23;;;13.60;78.70;;;;;;5074023;28;20421;-67
2022/06/02 00:17:33;;;;;;;6.30;5.80;;;13.60;78.70;;;;;;5073968;28;20495;-67
2022/06/02 00:20:08;;;;;;;6.60;5.40;;;13.50;78.40;;;;;;5073483;28;20900;-67
2022/06/02 00:22:39;;;;;;;6.53;5.90;;;13.50;78.40;;;;;;5073967;28;20526;-67
2022/06/02 00:25:12;;;;;;;6.60;5.90;;;13.50;78.50;;;;;;5073918;28;20456;-67
2022/06/02 00:27:44;;;;;;;6.10;5.60;;;13.40;78.40;;;;;;5074043;28;20435;-67
2022/06/02 00:30:19;;;;;;;6.53;6.03;;;13.40;78.60;;;;;;5073669;28;20472;-67
2022/06/02 00:32:54;;;;;;;6.47;5.87;;;13.40;78.60;;;;;;5074210;28;20832;-67
2022/06/02 00:35:27;;;;;;;6.87;6.27;;;13.40;78.60;;;;;;5073988;28;20435;-67
2022/06/02 00:37:59;;;;;;;7.67;6.97;;;13.30;78.60;;;;;;5073794;28;20428;-67
2022/06/02 00:40:29;;;;;;;7.40;6.70;;;13.30;78.60;;;;;;5073572;28;20552;-67
2022/06/02 00:43:13;;;;;;;7.00;6.30;;;13.30;79.70;;;;;;5073643;28;20449;-67
2022/06/02 00:45:42;;;;;;;7.80;7.10;;;13.20;78.90;;;;;;5073562;28;20433;-67
2022/06/02 00:48:16;;;;;;;7.03;6.33;;;13.20;79.00;;;;;;5073688;28;20453;-67
2022/06/02 00:50:53;;;;;;;7.97;7.27;;;13.20;79.20;;;;;;5073459;28;20468;-67
2022/06/02 00:53:34;;;;;;;8.40;7.80;;;13.20;79.40;;;;;;5073560;28;20444;-67
2022/06/02 00:59:12;;;;;;;7.93;7.13;;;13.00;79.50;;;;;;5073299;28;20547;-67
2022/06/02 01:01:38;;;;;;;7.07;6.47;;;12.90;79.70;;;;;;5073388;28;20470;-67
2022/06/02 01:04:10;;;;;;;7.23;6.63;;;12.70;80.20;;;;;;5073372;28;20448;-67
2022/06/02 01:07:02;;;;;;;7.63;6.90;;;12.70;81.00;;;;;;5073528;28;20425;-69
2022/06/02 01:10:11;;;;;;;6.90;6.30;;;12.60;81.40;;;;;;5073403;28;20888;-69
2022/06/02 01:13:15;;;;;;;7.77;7.10;;;12.50;81.80;;;;;;5062580;28;20454;-69
2022/06/02 01:15:50;;;;;;;8.07;7.33;;;12.40;82.10;;;;;;5073386;28;20428;-69
2022/06/02 01:18:26;;;;;;;8.90;7.80;;;12.40;83.20;;;;;;5073666;28;20435;-70
2022/06/02 01:21:05;;;;;;;9.13;8.23;;;12.40;82.60;;;;;;5073111;28;20480;-69
2022/06/02 01:23:54;;;;;;;10.93;7.13;;;12.40;82.70;;;;;;5074600;28;20440;-70
2022/06/02 01:26:59;;;;;;;7.80;7.10;;;12.50;82.70;;;;;;5076872;28;20432;-70
2022/06/02 01:30:00;;;;;;;10.43;8.10;;;12.50;82.70;;;;;;5077064;28;20479;-69
2022/06/02 01:32:37;;;;;;;8.60;7.90;;;12.50;82.80;;;;;;5077182;28;20454;-69
2022/06/02 02:15:42;;;;;;;10.07;9.13;;;12.30;82.80;;;;;;5076181;28;20852;-69
2022/06/02 02:18:18;;;;;;;10.30;9.30;;;12.20;82.90;;;;;;5090303;28;20464;-69
2022/06/02 02:21:00;;;;;;;10.27;9.27;;;12.20;83.00;;;;;;5076035;28;20997;-69
2022/06/02 02:23:33;;;;;;;9.47;8.67;;;12.10;83.00;;;;;;5076634;28;20433;-69
2022/06/02 02:26:05;;;;;;;8.20;7.50;;;12.00;83.00;;;;;;5077520;28;20437;-69
2022/06/02 02:28:45;;;;;;;8.67;7.87;;;12.00;83.20;;;;;;5078257;28;20468;-69
2022/06/02 02:31:25;;;;;;;9.03;7.73;;;11.90;83.40;;;;;;5078313;28;20460;-69
2022/06/02 02:33:59;;;;;;;9.30;8.30;;;11.90;83.80;;;;;;5079385;28;20956;-69
2022/06/02 02:36:33;;;;;;;9.20;8.40;;;11.80;83.70;;;;;;5077389;28;20437;-70
2022/06/02 02:39:08;;;;;;;8.10;7.40;;;11.80;83.50;;;;;;5077909;28;20435;-69
2022/06/02 02:41:43;;;;;;;10.07;9.07;;;11.80;83.60;;;;;;5075826;28;20507;-69
2022/06/02 02:44:14;;;;;;;9.10;8.30;;;11.80;83.80;;;;;;5075800;28;20439;-69
2022/06/02 02:46:50;;;;;;;9.87;8.97;;;11.70;83.90;;;;;;5075740;28;20425;-69
2022/06/02 02:49:22;;;;;;;10.47;9.50;;;11.80;84.20;;;;;;5075601;28;20464;-69
2022/06/02 02:51:58;;;;;;;9.23;8.40;;;11.70;84.10;;;;;;5075618;28;20425;-69
2022/06/02 02:54:30;;;;;;;10.50;9.47;;;11.70;84.30;;;;;;5075230;28;20444;-69
2022/06/02 02:57:04;;;;;;;12.03;10.80;;;11.70;84.60;;;;;;5075525;28;20437;-69
2022/06/02 02:59:39;;;;;;;11.63;10.00;;;11.70;84.60;;;;;;5075454;28;20470;-70
2022/06/02 03:02:16;;;;;;;11.37;10.27;;;11.70;84.60;;;;;;5075339;28;20460;-69
2022/06/02 03:04:52;;;;;;;11.87;10.87;;;11.70;84.70;;;;;;5075433;28;20471;-69
2022/06/02 03:07:20;;;;;;;11.50;10.40;;;11.70;85.60;;;;;;5074914;28;20483;-69
2022/06/02 03:10:04;;;;;;;11.33;10.10;;;11.70;84.90;;;;;;5074913;28;20977;-67
2022/06/02 03:12:49;;;;;;;11.83;10.00;;;11.60;84.90;;;;;;5075218;28;20429;-67
2022/06/02 03:15:23;;;;;;;13.50;12.10;;;11.60;85.70;;;;;;5075184;28;20432;-67
2022/06/02 03:18:24;;;;;;;13.83;12.47;;;11.60;86.30;;;;;;5075045;28;20436;-67
2022/06/02 03:20:57;;;;;;;12.00;10.90;;;11.70;87.00;;;;;;5042016;28;20998;-67
2022/06/02 03:23:47;;;;;;;11.37;10.27;;;11.70;86.70;;;;;;5074958;28;20440;-67
2022/06/02 03:26:24;;;;;;;13.23;11.37;;;11.60;86.40;;;;;;5071353;28;20456;-67
2022/06/02 03:28:58;;;;;;;12.23;11.03;;;11.60;86.60;;;;;;5074544;28;20436;-69
2022/06/02 03:31:33;;;;;;;12.90;11.70;;;11.60;86.70;;;;;;5075159;28;20429;-69
2022/06/02 03:34:11;;;;;;;12.30;11.10;;;11.50;86.60;;;;;;5075055;28;20428;-67
2022/06/02 03:36:57;;;;;;;12.10;10.97;;;11.50;86.50;;;;;;5074835;28;20450;-68
2022/06/02 03:39:36;;;;;;;12.60;11.30;;;11.60;86.50;;;;;;5074638;28;20489;-68
2022/06/02 03:42:17;;;;;;;11.43;10.27;;;11.60;86.50;;;;;;5074509;28;20472;-68
2022/06/02 03:44:57;;;;;;;12.50;11.03;;;11.60;86.50;;;;;;5074589;28;20436;-68
2022/06/02 03:47:40;;;;;;;12.27;11.23;;;11.60;86.50;;;;;;5074406;28;20436;-68
2022/06/02 03:50:38;;;;;;;12.70;11.40;;;11.60;86.30;;;;;;5075350;28;20469;-68
2022/06/02 03:53:31;;;;;;;12.70;11.00;;;11.60;86.20;;;;;;5074406;28;20898;-67
2022/06/02 03:56:10;;;;;;;13.73;12.33;;;11.60;86.40;;;;;;5040590;28;20972;-68
2022/06/02 03:58:51;;;;;;;12.73;11.47;;;11.60;86.80;;;;;;5074575;28;20460;-68
2022/06/02 04:01:22;;;;;;;14.43;12.97;;;11.70;87.80;;;;;;5074463;28;20468;-68
2022/06/02 04:04:06;;;;;;;12.73;11.50;;;11.70;87.30;;;;;;5074326;28;20452;-68
2022/06/02 04:06:46;;;;;;;12.70;11.50;;;11.70;87.40;;;;;;5073907;28;20435;-68
2022/06/02 04:09:25;;;;;;;12.80;11.20;;;11.70;87.20;;;;;;5073774;28;20836;-69
2022/06/02 04:15:17;;;;;;;12.97;11.73;;;11.70;87.00;;;;;;5048022;28;20439;-68
2022/06/02 04:17:52;;;;;;;14.10;10.83;;;11.70;86.80;;;;;;5074000;28;20425;-68
2022/06/02 04:20:37;;;;;;;12.80;11.57;;;11.70;86.90;;;;;;5073874;28;20456;-68
2022/06/02 04:23:34;;;;;;;12.53;11.20;;;11.80;87.10;;;;;;5073624;28;21031;-68
2022/06/02 04:26:13;;;;;;;12.00;10.80;;;11.80;87.20;;;;;;5072476;28;20831;-68
2022/06/02 04:28:57;;;;;;;12.70;8.70;;;11.80;87.20;;;;;;5073919;28;20432;-67
2022/06/02 04:31:36;;;;;;;13.97;12.33;;;11.90;87.50;;;;;;5073784;28;20444;-67
2022/06/02 04:34:11;;;;;;;14.63;13.13;;;11.90;87.80;;;;;;5073884;28;20461;-67
2022/06/02 04:36:45;;;;;;;14.03;12.57;;;12.00;88.40;;;;;;5073532;28;21000;-67
2022/06/02 04:39:22;;;;;;;13.60;11.20;;;12.00;88.70;;;;;;5073653;28;20433;-67
2022/06/02 04:41:57;;;;;;;15.93;11.80;;;12.00;88.90;;;;;;5073606;28;20471;-68
2022/06/02 04:44:32;;;;;;;13.30;11.33;;;12.00;89.10;;;;;;5073991;28;20425;-68
2022/06/02 04:47:09;;;;;;;14.37;12.97;;;12.00;89.30;;;;;;5073489;28;20451;-68
2022/06/02 04:49:43;;;;;;;14.10;12.63;;;12.00;89.90;;;;;;5073281;28;20468;-68
2022/06/02 04:52:21;;;;;;;20.63;14.50;;;11.90;90.20;;;;;;5073610;28;20429;-68
2022/06/02 04:54:56;;;;;;;18.50;15.50;;;11.90;90.60;;;;;;5073528;28;20458;-68
2022/06/02 04:57:30;;;;;;;18.53;15.80;;;11.90;91.20;;;;;;5073286;28;20448;-68
2022/06/02 05:00:04;;;;;;;18.10;16.20;;;12.00;91.80;;;;;;5074029;28;20788;-68
2022/06/02 05:02:44;;;;;;;20.67;16.77;;;12.00;92.20;;;;;;5073477;28;20464;-73
2022/06/02 05:05:18;;;;;;;32.73;18.23;;;12.00;92.50;;;;;;5073639;28;20424;-70
2022/06/02 05:08:12;;;;;;;18.90;16.03;;;12.00;92.80;;;;;;5073407;28;20440;-70
2022/06/02 05:10:46;;;;;;;26.10;18.90;;;12.10;93.10;;;;;;5073248;28;20473;-69
2022/06/02 05:13:34;;;;;;;20.90;18.57;;;12.10;93.40;;;;;;5073163;28;20472;-70
2022/06/02 05:16:11;;;;;;;25.20;19.93;;;12.10;93.70;;;;;;5073057;28;20938;-70
2022/06/02 05:18:57;;;;;;;21.30;19.10;;;12.20;93.90;;;;;;5073340;28;20432;-70
2022/06/02 05:21:59;;;;;;;22.47;19.67;;;12.20;94.10;;;;;;5073337;28;20499;-69
2022/06/02 05:25:02;;;;;;;21.37;19.10;;;12.30;94.20;;;;;;5056449;28;20463;-70
2022/06/02 05:28:15;;;;;;;25.00;18.23;;;12.30;94.30;;;;;;5047250;28;20456;-70
2022/06/02 05:30:57;;;;;;;21.37;19.17;;;12.40;94.20;;;;;;5072925;28;20901;-69
2022/06/02 05:33:45;;;;;;;19.67;17.67;;;12.40;94.30;;;;;;5073102;28;20424;-70
2022/06/02 05:36:26;;;;;;;22.33;20.13;;;12.50;94.40;;;;;;5073260;28;20437;-70
2022/06/02 05:39:07;;;;;;;26.00;19.40;;;12.60;94.40;;;;;;5073494;28;20420;-70
2022/06/02 05:41:59;;;;;;;21.27;19.10;;;12.60;94.30;;;;;;5073269;28;20464;-70
2022/06/02 05:44:39;;;;;;;22.57;19.00;;;12.70;94.40;;;;;;5073284;28;20429;-71
2022/06/02 05:47:27;;;;;;;23.00;20.70;;;12.80;94.40;;;;;;5073752;28;20429;-72
2022/06/02 05:50:02;;;;;;;19.67;17.77;;;12.90;94.40;;;;;;5071224;28;20491;-72
2022/06/02 05:52:40;;;;;;;21.40;19.10;;;13.00;94.60;;;;;;5074384;28;20435;-72
2022/06/02 05:55:21;;;;;;;21.30;19.00;;;13.10;95.10;;;;;;5074319;28;20444;-72
2022/06/02 05:57:58;;;;;;;20.57;18.47;;;13.20;94.80;;;;;;5074866;28;20460;-72
2022/06/02 06:00:35;;;;;;;21.00;18.80;;;13.30;94.70;;;;;;5076207;28;20464;-73
2022/06/02 06:03:35;;;;;;;20.20;18.40;;;13.40;94.40;;;;;;5076187;28;20471;-73
2022/06/02 06:06:08;;;;;;;22.90;20.60;;;13.50;94.20;;;;;;5074544;28;20456;-72
2022/06/02 06:08:49;;;;;;;22.27;20.27;;;13.60;93.90;;;;;;5094809;28;20444;-68
2022/06/02 06:11:30;;;;;;;23.57;21.27;;;13.70;93.80;;;;;;5095234;28;20468;-69
2022/06/02 06:14:15;;;;;;;21.70;19.47;;;13.80;93.80;;;;;;5096616;28;20470;-69
2022/06/02 06:16:54;;;;;;;17.97;16.27;;;13.90;94.00;;;;;;5096837;28;20424;-69
2022/06/02 06:19:43;;;;;;;19.80;17.87;;;14.00;93.50;;;;;;5096154;28;21045;-68
2022/06/02 06:22:36;;;;;;;20.23;18.10;;;14.20;93.40;;;;;;5096402;28;20554;-69
2022/06/02 06:25:30;;;;;;;21.67;19.37;;;14.40;93.10;;;;;;5096129;28;20936;-69
2022/06/02 06:28:09;;;;;;;20.47;18.37;;;14.50;92.90;;;;;;5082628;28;20948;-69
2022/06/02 06:30:54;;;;;;;19.17;17.47;;;14.50;92.40;;;;;;5096240;28;20556;-69
2022/06/02 06:33:36;;;;;;;17.27;15.73;;;14.60;92.50;;;;;;5096298;28;20431;-69
2022/06/02 06:36:11;;;;;;;17.00;15.40;;;14.70;92.10;;;;;;5096450;28;20420;-68
2022/06/02 06:38:56;;;;;;;20.13;18.23;;;14.90;91.60;;;;;;5095853;28;20790;-69
2022/06/02 06:41:46;;;;;;;19.00;17.33;;;15.10;91.10;;;;;;5096322;28;20428;-70
2022/06/02 06:44:21;;;;;;;21.83;17.57;;;15.30;90.60;;;;;;5096072;28;20428;-70
2022/06/02 06:46:55;;;;;;;19.60;17.70;;;15.40;90.50;;;;;;5095667;28;20801;-70
2022/06/02 06:49:34;;;;;;;18.50;16.50;;;15.50;91.00;;;;;;5096552;28;20482;-70
2022/06/02 06:52:25;;;;;;;16.37;14.53;;;15.70;90.80;;;;;;5095950;28;20431;-70
2022/06/02 06:55:01;;;;;;;18.90;17.20;;;15.80;90.50;;;;;;5095967;28;20448;-70
2022/06/02 06:57:37;;;;;;;17.23;15.53;;;16.00;90.00;;;;;;5095658;28;20459;-72
2022/06/02 07:00:07;;;;;;;18.27;16.67;;;16.20;89.40;;;;;;5095750;28;20470;-73
2022/06/02 07:02:46;;;;;;;16.43;14.83;;;16.30;88.70;;;;;;5095671;28;20468;-72
2022/06/02 07:05:20;;;;;;;16.13;14.70;;;16.50;87.50;;;;;;5095927;28;20446;-72
2022/06/02 07:07:56;;;;;;;14.17;12.87;;;16.70;86.30;;;;;;5095853;28;20435;-72
2022/06/02 07:10:30;;;;;;;9.47;8.63;;;17.00;85.70;;;;;;5095677;28;20554;-72
2022/06/02 07:13:06;;;;;;;10.47;9.43;;;17.30;83.70;;;;;;5095584;28;20456;-72
2022/06/02 07:15:46;;;;;;;7.53;6.80;;;17.50;80.60;;;;;;5096014;28;20432;-73
2022/06/02 07:18:30;;;;;;;11.97;10.97;;;17.90;79.00;;;;;;5095588;28;20485;-73
2022/06/02 07:21:04;;;;;;;11.33;9.67;;;18.20;77.20;;;;;;5095290;28;20495;-73
2022/06/02 07:23:50;;;;;;;11.20;9.60;;;18.30;75.30;;;;;;5095675;28;20474;-73
2022/06/02 07:26:29;;;;;;;8.07;7.23;;;18.30;73.80;;;;;;5095399;28;20435;-73
2022/06/02 07:29:05;;;;;;;6.27;5.77;;;18.50;73.60;;;;;;5095495;28;20446;-72
2022/06/02 07:31:49;;;;;;;9.13;8.37;;;18.70;72.70;;;;;;5095387;28;20428;-73
2022/06/02 07:34:31;;;;;;;10.77;9.67;;;19.00;72.90;;;;;;5095183;28;20468;-72
2022/06/02 07:37:20;;;;;;;10.07;9.17;;;19.30;71.20;;;;;;5095126;28;20487;-72
2022/06/02 07:40:12;;;;;;;10.33;9.37;;;19.60;69.70;;;;;;5095018;28;20467;-73
2022/06/02 07:43:30;;;;;;;9.20;8.40;;;19.90;68.20;;;;;;5094426;28;20880;-72
2022/06/02 07:46:10;;;;;;;8.80;8.10;;;20.20;66.90;;;;;;5094871;28;20443;-72
2022/06/02 07:48:57;;;;;;;8.90;8.20;;;20.40;64.50;;;;;;5094964;28;20439;-72
2022/06/02 07:51:31;;;;;;;8.40;7.70;;;20.60;64.10;;;;;;5095398;28;20428;-74
2022/06/02 07:54:24;;;;;;;8.87;6.30;;;20.80;64.50;;;;;;5095583;28;20416;-74
2022/06/02 07:57:07;;;;;;;7.73;7.03;;;21.10;62.30;;;;;;5094870;28;20444;-73
2022/06/02 07:59:46;;;;;;;8.73;7.93;;;21.30;62.00;;;;;;5094729;28;20530;-73
2022/06/02 08:02:29;;;;;;;6.10;5.50;;;21.60;60.50;;;;;;5094614;28;20472;-71
2022/06/02 08:05:04;;;;;;;6.60;6.13;;;21.70;58.70;;;;;;5094540;28;20443;-71
2022/06/02 08:07:35;;;;;;;8.10;7.30;;;21.80;58.30;;;;;;5094595;28;20431;-70
2022/06/02 08:10:17;;;;;;;7.73;7.13;;;21.80;56.90;;;;;;5094362;28;20468;-70
2022/06/02 08:12:49;;;;;;;7.53;6.43;;;21.70;56.50;;;;;;5094288;28;20456;-71
2022/06/02 08:15:27;;;;;;;5.40;4.87;;;21.40;56.50;;;;;;5094313;28;20436;-70
2022/06/02 08:17:58;;;;;;;4.97;4.50;;;21.20;56.40;;;;;;5093943;28;20444;-69
2022/06/02 08:20:46;;;;;;;8.60;6.10;;;20.90;56.80;;;;;;5073920;28;20492;-70
2022/06/02 08:23:36;;;;;;;6.10;5.00;;;20.70;56.60;;;;;;5073666;28;20472;-71
2022/06/02 08:26:12;;;;;;;7.50;6.80;;;20.40;56.80;;;;;;5073388;28;20977;-70
2022/06/02 08:29:03;;;;;;;7.50;6.80;;;20.00;57.50;;;;;;5073901;28;20773;-70
2022/06/02 08:31:52;;;;;;;7.30;6.63;;;19.80;58.40;;;;;;5073826;28;20442;-71
2022/06/02 08:34:24;;;;;;;8.53;6.80;;;19.80;59.80;;;;;;5073048;28;20425;-70
2022/06/02 08:36:58;;;;;;;6.90;6.30;;;19.80;59.80;;;;;;5073691;28;20436;-70
2022/06/02 08:39:49;;;;;;;5.80;5.30;;;19.90;59.50;;;;;;5073384;28;21007;-70
2022/06/02 08:42:34;;;;;;;6.07;5.50;;;20.10;59.00;;;;;;5073786;28;20469;-70
2022/06/02 08:45:52;;;;;;;8.50;3.87;;;20.30;59.90;;;;;;5073627;28;20429;-70
2022/06/02 08:49:03;;;;;;;4.10;3.80;;;20.40;58.00;;;;;;5069035;28;20548;-70
2022/06/02 08:52:06;;;;;;;6.87;5.83;;;20.70;59.10;;;;;;5073706;28;20452;-70
2022/06/02 08:55:08;;;;;;;3.70;3.13;;;21.10;58.30;;;;;;5073211;28;20902;-71
2022/06/02 08:57:59;;;;;;;4.77;3.63;;;21.30;57.30;;;;;;5066511;28;20970;-71
2022/06/02 09:00:45;;;;;;;5.57;5.00;;;21.60;56.40;;;;;;5069909;28;20542;-71
2022/06/02 09:03:48;;;;;;;3.50;3.20;;;21.90;55.70;;;;;;5073392;28;20472;-71
2022/06/02 09:06:53;;;;;;;3.30;2.67;;;22.20;54.50;;;;;;5073349;28;20424;-71
2022/06/02 09:09:46;;;;;;;3.20;2.80;;;22.60;54.80;;;;;;5074259;28;20461;-71
2022/06/02 09:12:37;;;;;;;3.20;2.60;;;23.00;54.80;;;;;;5073802;28;20440;-71
2022/06/02 09:15:46;;;;;;;2.70;2.50;;;23.30;51.40;;;;;;5073429;28;20433;-71
2022/06/02 09:18:19;;;;;;;3.33;2.80;;;23.40;51.00;;;;;;5064349;28;20480;-70
2022/06/02 09:20:50;;;;;;;3.43;2.37;;;23.60;51.00;;;;;;5074493;28;20977;-71
2022/06/02 09:23:37;;;;;;;3.73;2.97;;;23.90;51.00;;;;;;5075350;28;20507;-70
2022/06/02 09:26:16;;;;;;;6.43;4.67;;;24.40;49.80;;;;;;5075686;28;20436;-69
2022/06/02 09:29:03;;;;;;;3.00;2.80;;;24.80;46.90;;;;;;5076310;28;20432;-69
2022/06/02 09:31:52;;;;;;;3.67;2.67;;;25.10;46.70;;;;;;5076965;28;20429;-69
2022/06/02 09:34:34;;;;;;;3.20;2.90;;;25.50;47.40;;;;;;5074491;28;20800;-70
2022/06/02 09:37:32;;;;;;;3.30;3.00;;;25.80;45.90;;;;;;5073964;28;20776;-70
2022/06/02 09:40:08;;;;;;;4.87;4.07;;;26.20;45.30;;;;;;5073095;28;20460;-70
2022/06/02 09:43:06;;;;;;;4.13;3.47;;;26.70;44.30;;;;;;5073274;28;20463;-70
2022/06/02 09:45:45;;;;;;;3.33;3.03;;;27.10;41.50;;;;;;5076280;28;20442;-70
2022/06/02 09:48:27;;;;;;;5.00;3.00;;;27.50;39.00;;;;;;5076877;28;20439;-70
2022/06/02 09:51:23;;;;;;;2.70;2.20;;;27.60;38.90;;;;;;5076725;28;20464;-70
2022/06/02 09:54:16;;;;;;;2.23;2.03;;;27.90;39.40;;;;;;5076646;28;20425;-70
2022/06/02 09:57:55;;;;;;;3.70;3.30;;;28.40;39.60;;;;;;5076321;28;20921;-70
2022/06/02 10:00:11;;;;;;;4.97;4.57;;;28.90;37.70;;;;;;5077339;28;20535;-70
2022/06/02 10:02:47;;;;;;;3.40;3.20;;;29.20;35.90;;;;;;5076253;28;20985;-70
2022/06/02 10:05:26;;;;;;;4.90;2.57;;;29.20;35.10;;;;;;5076475;28;20448;-70
2022/06/02 10:08:06;;;;;;;3.57;2.27;;;29.20;35.80;;;;;;5076523;28;20439;-70
2022/06/02 10:10:47;;;;;;;2.10;2.00;;;29.50;36.10;;;;;;5076470;28;20467;-70
2022/06/02 10:13:49;;;;;;;3.13;2.27;;;30.00;36.00;;;;;;5076349;28;20464;-70
2022/06/02 10:16:43;;;;;;;4.40;2.47;;;30.50;34.30;;;;;;5062221;28;20474;-69
2022/06/02 10:19:35;;;;;;;2.60;2.40;;;31.00;33.80;;;;;;5076170;28;20482;-70
2022/06/02 10:22:15;;;;;;;2.93;2.70;;;31.70;32.70;;;;;;5076188;28;20428;-70
2022/06/02 10:25:08;;;;;;;3.20;2.90;;;32.30;31.90;;;;;;5076112;28;20416;-70
2022/06/02 10:28:14;;;;;;;3.67;2.20;;;32.80;30.80;;;;;;5076149;28;20448;-70
2022/06/02 10:31:16;;;;;;;2.70;2.30;;;33.40;29.70;;;;;;5076059;28;20488;-70
2022/06/02 10:34:21;;;;;;;2.33;2.13;;;33.80;28.60;;;;;;5076097;28;20530;-70
2022/06/02 10:37:23;;;;;;;4.00;3.13;;;34.40;28.70;;;;;;5075726;28;20968;-70
2022/06/02 10:40:09;;;;;;;5.37;3.70;;;34.80;27.80;;;;;;5070717;28;20479;-70
2022/06/02 10:43:00;;;;;;;4.53;3.70;;;34.60;27.10;;;;;;5075705;28;20435;-68
2022/06/02 10:45:56;;;;;;;7.30;4.33;;;34.60;25.60;;;;;;5078646;28;20432;-72
2022/06/02 10:49:02;;;;;;;5.30;4.87;;;34.80;26.00;;;;;;5080769;28;20858;-72
2022/06/02 10:51:56;;;;;;;6.90;3.90;;;35.10;24.20;;;;;;5078525;28;21006;-73
2022/06/02 10:54:50;;;;;;;3.50;3.30;;;35.30;25.00;;;;;;5080286;28;20432;-73
2022/06/02 10:57:45;;;;;;;4.00;2.80;;;35.90;24.60;;;;;;5081169;28;20447;-73
2022/06/02 11:00:24;;;;;;;3.40;3.00;;;36.60;23.90;;;;;;5083239;28;20842;-74
2022/06/02 11:03:41;;;;;;;5.57;3.50;;;37.30;23.80;;;;;;5076416;28;20205;-73
2022/06/02 11:06:43;;;;;;;4.78;4.30;;;38.00;22.50;;;;;;5077052;28;20193;-73
2022/06/02 11:09:43;;;;;;;3.70;3.22;;;38.60;20.70;;;;;;5077227;28;20192;-73
2022/06/02 11:12:54;;;;;;;7.85;4.88;;;39.00;21.30;;;;;;5077437;28;20189;-73
2022/06/02 11:15:47;;;;;;;5.30;3.88;;;39.60;21.20;;;;;;5081023;28;20197;-72
2022/06/02 11:18:49;;;;;;;5.22;4.93;;;39.90;20.10;;;;;;5075651;28;20186;-73
2022/06/02 11:21:50;;;;;;;5.70;5.28;;;40.20;20.10;;;;;;5060886;28;20256;-74
2022/06/02 11:24:59;;;;;;;4.20;3.80;;;40.30;18.90;;;;;;5075526;28;20208;-74
2022/06/02 11:28:08;;;;;;;3.88;3.67;;;40.20;19.10;;;;;;5065566;28;20205;-74
2022/06/02 11:31:02;;;;;;;3.97;3.35;;;40.30;19.10;;;;;;5075636;28;20225;-73
2022/06/02 11:34:06;;;;;;;4.53;3.40;;;40.60;19.30;;;;;;5077379;28;20202;-72
2022/06/02 11:36:58;;;;;;;3.85;3.55;;;40.90;19.50;;;;;;5077305;28;20674;-73
2022/06/02 11:39:55;;;;;;;3.63;3.35;;;41.00;19.30;;;;;;5075728;28;20707;-72
2022/06/02 11:42:38;;;;;;;3.30;3.00;;;41.10;19.00;;;;;;5075446;28;20182;-73
2022/06/02 11:45:15;;;;;;;5.10;3.10;;;41.40;19.20;;;;;;5074992;28;20186;-73
2022/06/02 11:47:56;;;;;;;3.53;3.22;;;41.70;19.30;;;;;;5075806;28;20217;-74
2022/06/02 11:50:44;;;;;;;4.90;4.53;;;41.90;19.10;;;;;;5077937;28;20228;-73
2022/06/02 11:53:33;;;;;;;4.82;4.45;;;42.10;18.00;;;;;;5077294;28;20182;-74
2022/06/02 11:56:09;;;;;;;3.65;3.05;;;42.10;17.00;;;;;;5075239;28;20206;-73
2022/06/02 11:59:24;;;;;;;3.65;3.10;;;42.10;17.60;;;;;;5074534;28;20589;-73
2022/06/02 12:02:12;;;;;;;4.30;4.00;;;42.40;17.80;;;;;;5052772;28;20202;-73
2022/06/02 12:05:19;;;;;;;4.47;4.07;;;42.50;17.30;;;;;;5077397;28;20210;-73
2022/06/02 12:08:30;;;;;;;3.90;3.60;;;42.50;16.70;;;;;;5071409;28;20206;-73
2022/06/02 12:11:22;;;;;;;2.50;2.40;;;42.50;17.40;;;;;;5074350;28;20229;-73
2022/06/02 12:14:18;;;;;;;3.38;3.10;;;42.70;17.60;;;;;;5076644;28;20190;-73
2022/06/02 12:17:03;;;;;;;4.22;3.80;;;43.00;17.70;;;;;;5074781;28;20193;-73
2022/06/02 12:20:09;;;;;;;3.00;2.78;;;42.60;17.60;;;;;;5074215;28;20225;-73
2022/06/02 12:22:57;;;;;;;3.25;3.03;;;42.10;17.90;;;;;;5030487;28;20228;-73
2022/06/02 12:25:49;;;;;;;3.83;3.25;;;42.20;18.20;;;;;;5075857;28;20205;-73
2022/06/02 12:28:50;;;;;;;4.57;3.72;;;42.50;17.00;;;;;;5076739;28;20688;-73
2022/06/02 12:31:53;;;;;;;5.20;3.63;;;42.70;16.20;;;;;;5075390;28;20559;-73
2022/06/02 12:34:47;;;;;;;2.90;2.60;;;43.00;16.90;;;;;;5075195;28;20223;-72
2022/06/02 12:37:51;;;;;;;4.25;3.78;;;43.40;16.30;;;;;;5077111;28;20190;-71
2022/06/02 12:40:43;;;;;;;3.40;3.00;;;43.50;15.10;;;;;;5056946;28;20267;-73
2022/06/02 12:43:42;;;;;;;2.75;2.47;;;43.60;15.50;;;;;;5074391;28;20190;-72
2022/06/02 12:46:30;;;;;;;2.85;2.47;;;44.00;16.10;;;;;;5074955;28;20193;-72
2022/06/02 12:49:33;;;;;;;3.53;3.22;;;44.40;15.80;;;;;;5075575;28;20212;-71
2022/06/02 12:52:24;;;;;;;2.70;2.50;;;44.70;14.20;;;;;;5076247;28;20194;-73
2022/06/02 12:55:14;;;;;;;2.50;2.30;;;44.50;15.50;;;;;;5075908;28;20201;-72
2022/06/02 12:58:11;;;;;;;2.53;2.33;;;44.20;15.90;;;;;;5075622;28;20206;-73
2022/06/02 13:00:55;;;;;;;5.28;2.97;;;43.90;16.00;;;;;;5075009;28;20233;-72
2022/06/02 13:03:55;;;;;;;3.17;2.97;;;43.80;16.10;;;;;;5075056;28;20224;-72
2022/06/02 13:07:20;;;;;;;2.28;2.17;;;43.80;15.80;;;;;;5073596;28;20193;-72
2022/06/02 13:10:14;;;;;;;2.40;2.00;;;44.10;16.20;;;;;;5073621;28;20228;-72
2022/06/02 13:13:02;;;;;;;2.80;2.60;;;44.70;15.60;;;;;;5070795;28;20204;-72
2022/06/02 13:16:15;;;;;;;2.22;2.08;;;45.30;14.30;;;;;;5073398;28;20189;-73
2022/06/02 13:19:09;;;;;;;2.90;2.70;;;45.70;14.70;;;;;;5047990;28;20210;-73
2022/06/02 13:22:03;;;;;;;3.75;2.97;;;46.10;14.30;;;;;;5077834;28;20221;-72
2022/06/02 13:24:57;;;;;;;2.88;2.67;;;46.30;13.90;;;;;;5077667;28;20217;-72
2022/06/02 13:27:48;;;;;;;3.30;1.90;;;46.40;13.80;;;;;;5077396;28;20193;-72
2022/06/02 13:30:40;;;;;;;1.88;1.42;;;46.50;14.10;;;;;;5077384;28;20232;-72
2022/06/02 13:33:40;;;;;;;1.80;1.70;;;46.90;14.10;;;;;;5077324;28;20589;-73
2022/06/02 13:36:27;;;;;;;1.98;1.77;;;47.10;13.50;;;;;;5044950;28;20209;-72
2022/06/02 13:39:25;;;;;;;4.60;2.20;;;47.20;14.00;;;;;;5077064;28;20189;-72
2022/06/02 13:42:15;;;;;;;1.90;1.80;;;47.30;13.10;;;;;;5077005;28;20181;-72
2022/06/02 13:45:16;;;;;;;3.00;2.70;;;47.40;12.90;;;;;;5067629;28;20209;-72
2022/06/02 13:48:21;;;;;;;2.45;2.25;;;47.70;12.60;;;;;;5076622;28;20535;-72
2022/06/02 13:51:34;;;;;;;2.58;2.38;;;47.80;12.60;;;;;;5053180;28;20224;-72
2022/06/02 13:57:46;;;;;;;2.80;1.83;;;47.80;11.80;;;;;;5076845;28;20205;-68
2022/06/02 14:00:20;;;;;;;3.03;1.92;;;47.90;12.80;;;;;;5076020;28;20663;-69
2022/06/02 14:03:07;;;;;;;2.42;2.22;;;48.00;12.70;;;;;;5076593;28;20189;-69
2022/06/02 14:06:05;;;;;;;2.67;1.60;;;48.30;12.40;;;;;;5076537;28;20186;-69
2022/06/02 14:08:57;;;;;;;1.83;1.73;;;48.40;12.70;;;;;;5077308;28;20190;-70
2022/06/02 14:11:39;;;;;;;4.75;2.10;;;48.70;12.40;;;;;;5077384;28;20217;-68
2022/06/02 14:14:35;;;;;;;1.85;1.70;;;48.80;12.20;;;;;;5076540;28;20679;-69
2022/06/02 14:17:16;;;;;;;1.83;1.73;;;49.00;12.50;;;;;;5095313;28;20197;-69
2022/06/02 14:20:08;;;;;;;2.55;1.75;;;49.20;12.20;;;;;;5075625;28;20710;-68
2022/06/02 14:22:45;;;;;;;2.03;1.83;;;49.30;12.10;;;;;;5077371;28;20552;-66
2022/06/02 14:25:22;;;;;;;2.10;1.17;;;49.40;11.70;;;;;;5076507;28;20186;-67
2022/06/02 14:28:05;;;;;;;2.20;1.23;;;49.40;12.00;;;;;;5075752;28;20565;-67
2022/06/02 14:30:39;;;;;;;3.47;1.42;;;49.50;12.10;;;;;;5075121;28;20226;-67
2022/06/02 14:33:17;;;;;;;1.90;1.60;;;49.60;11.70;;;;;;5076027;28;20240;-67
2022/06/02 14:35:53;;;;;;;1.80;1.70;;;49.70;11.40;;;;;;5075586;28;20634;-67
2022/06/02 14:38:43;;;;;;;7.45;1.40;;;49.80;11.50;;;;;;5076048;28;20205;-67
2022/06/02 14:41:16;;;;;;;2.30;1.50;;;49.70;11.10;;;;;;5075885;28;20229;-67
2022/06/02 14:44:15;;;;;;;1.60;1.50;;;49.70;11.40;;;;;;5075494;28;20594;-67
2022/06/02 14:47:02;;;;;;;2.22;2.00;;;49.80;11.50;;;;;;5076030;28;20206;-70
2022/06/02 14:49:51;;;;;;;2.45;1.30;;;49.80;11.50;;;;;;5075939;28;20225;-70
2022/06/02 14:52:41;;;;;;;1.73;1.63;;;49.80;11.50;;;;;;5076058;28;20194;-70
2022/06/02 14:55:12;;;;;;;2.42;1.58;;;49.70;11.00;;;;;;5075716;28;20221;-70
2022/06/02 14:57:46;;;;;;;1.60;1.50;;;49.70;11.30;;;;;;5075559;28;20214;-71
2022/06/02 15:00:20;;;;;;;2.05;1.50;;;49.60;11.30;;;;;;5075529;28;20217;-70
2022/06/02 15:03:17;;;;;;;2.90;1.80;;;49.60;11.30;;;;;;5075495;28;20186;-70
2022/06/02 15:05:55;;;;;;;2.97;1.40;;;49.50;11.20;;;;;;5075497;28;20189;-70